createdAt,value
2019-03-13T00:00:19.804Z,22.80
2019-03-13T00:02:49.298Z,22.80
2019-03-13T00:05:18.843Z,22.80
2019-03-13T00:07:48.440Z,22.80
2019-03-13T00:10:17.933Z,22.80
2019-03-13T00:12:47.656Z,22.80
2019-03-13T00:15:17.641Z,22.80
2019-03-13T00:17:47.146Z,22.80
2019-03-13T00:20:18.123Z,22.70
2019-03-13T00:22:47.633Z,22.80
2019-03-13T00:25:17.120Z,22.70
2019-03-13T00:27:46.640Z,22.70
2019-03-13T00:30:16.421Z,22.70
2019-03-13T00:32:45.937Z,22.70
2019-03-13T00:35:16.561Z,22.70
2019-03-13T00:37:46.075Z,22.70
2019-03-13T00:40:16.934Z,22.70
2019-03-13T00:42:46.537Z,22.70
2019-03-13T00:45:16.248Z,22.60
2019-03-13T00:47:45.771Z,22.60
2019-03-13T00:50:26.767Z,22.60
2019-03-13T00:52:56.260Z,22.60
2019-03-13T00:55:25.990Z,22.60
2019-03-13T00:57:55.571Z,22.60
2019-03-13T01:00:53.740Z,22.60
2019-03-13T01:03:54.295Z,22.60
2019-03-13T01:06:33.669Z,22.50
2019-03-13T01:09:04.598Z,22.50
2019-03-13T01:11:34.085Z,22.50
2019-03-13T01:14:03.669Z,22.50
2019-03-13T01:16:33.443Z,22.50
2019-03-13T01:19:02.975Z,22.50
2019-03-13T01:21:32.464Z,22.50
2019-03-13T01:24:01.952Z,22.50
2019-03-13T01:26:31.590Z,22.50
2019-03-13T01:29:01.237Z,22.50
2019-03-13T01:31:49.792Z,22.50
2019-03-13T01:34:40.559Z,22.50
2019-03-13T01:37:10.084Z,22.50
2019-03-13T01:39:39.575Z,22.40
2019-03-13T01:42:09.208Z,22.40
2019-03-13T01:44:40.728Z,22.40
2019-03-13T01:47:09.974Z,22.40
2019-03-13T01:49:39.479Z,22.40
2019-03-13T01:52:09.088Z,22.40
2019-03-13T01:54:38.589Z,22.40
2019-03-13T01:57:08.165Z,22.40
2019-03-13T01:59:37.687Z,22.40
2019-03-13T02:02:07.184Z,22.40
2019-03-13T02:04:36.682Z,22.40
2019-03-13T02:07:06.207Z,22.40
2019-03-13T02:09:35.810Z,22.30
2019-03-13T02:12:05.509Z,22.30
2019-03-13T02:14:35.024Z,22.30
2019-03-13T02:17:04.558Z,22.30
2019-03-13T02:19:34.190Z,22.30
2019-03-13T02:22:03.758Z,22.30
2019-03-13T02:24:33.304Z,22.30
2019-03-13T02:27:02.815Z,22.30
2019-03-13T02:29:32.334Z,22.30
2019-03-13T02:32:01.844Z,22.30
2019-03-13T02:34:31.519Z,22.30
2019-03-13T02:37:01.008Z,22.30
2019-03-13T02:39:30.593Z,22.30
2019-03-13T02:42:00.257Z,22.30
2019-03-13T02:44:29.745Z,22.30
2019-03-13T02:46:59.364Z,22.30
2019-03-13T02:49:28.933Z,22.40
2019-03-13T02:52:00.230Z,22.40
2019-03-13T02:54:29.767Z,22.40
2019-03-13T02:57:00.413Z,22.40
2019-03-13T02:59:29.889Z,22.40
2019-03-13T03:02:27.649Z,22.40
2019-03-13T03:04:57.179Z,22.40
2019-03-13T03:07:26.749Z,22.40
2019-03-13T03:09:56.245Z,22.40
2019-03-13T03:12:25.759Z,22.40
2019-03-13T03:15:04.302Z,22.40
2019-03-13T03:17:34.725Z,22.40
2019-03-13T03:20:04.752Z,22.40
2019-03-13T03:22:34.278Z,22.40
2019-03-13T03:25:03.930Z,22.40
2019-03-13T03:27:33.456Z,22.40
2019-03-13T03:30:03.067Z,22.40
2019-03-13T03:32:32.645Z,22.40
2019-03-13T03:35:02.215Z,22.40
2019-03-13T03:37:31.893Z,22.40
2019-03-13T03:40:01.417Z,22.40
2019-03-13T03:42:30.950Z,22.40
2019-03-13T03:45:00.692Z,22.40
2019-03-13T03:47:30.148Z,22.40
2019-03-13T03:49:59.676Z,22.40
2019-03-13T03:52:29.278Z,22.40
2019-03-13T03:54:58.869Z,22.40
2019-03-13T03:57:28.357Z,22.40
2019-03-13T03:59:57.843Z,22.40
2019-03-13T04:02:27.432Z,22.40
2019-03-13T04:04:56.953Z,22.40
2019-03-13T04:07:26.739Z,22.40
2019-03-13T04:09:56.354Z,22.50
2019-03-13T04:12:25.983Z,22.50
2019-03-13T04:14:55.487Z,22.50
2019-03-13T04:17:25.082Z,22.50
2019-03-13T04:19:54.604Z,22.50
2019-03-13T04:22:24.205Z,22.50
2019-03-13T04:24:54.143Z,22.50
2019-03-13T04:27:23.759Z,22.50
2019-03-13T04:29:53.334Z,22.50
2019-03-13T04:32:22.883Z,22.50
2019-03-13T04:34:52.497Z,22.50
2019-03-13T04:37:22.044Z,22.50
2019-03-13T04:39:51.544Z,22.50
2019-03-13T04:42:21.096Z,22.50
2019-03-13T04:44:50.602Z,22.50
2019-03-13T04:47:20.108Z,22.50
2019-03-13T04:49:49.650Z,22.50
2019-03-13T04:52:19.153Z,22.50
2019-03-13T04:54:48.643Z,22.50
2019-03-13T04:57:18.160Z,22.50
2019-03-13T04:59:47.750Z,22.50
2019-03-13T05:02:17.250Z,22.50
2019-03-13T05:04:46.965Z,22.50
2019-03-13T05:07:18.267Z,22.50
2019-03-13T05:09:47.774Z,22.50
2019-03-13T05:12:17.392Z,22.50
2019-03-13T05:14:46.890Z,22.50
2019-03-13T05:17:16.390Z,22.50
2019-03-13T05:19:45.912Z,22.50
2019-03-13T05:22:15.503Z,22.50
2019-03-13T05:24:45.031Z,22.50
2019-03-13T05:27:14.537Z,22.90
2019-03-13T05:29:44.048Z,23.10
2019-03-13T05:32:13.547Z,23.10
2019-03-13T05:34:43.051Z,23.00
2019-03-13T05:37:12.656Z,22.80
2019-03-13T05:39:42.172Z,22.70
2019-03-13T05:42:11.689Z,22.60
2019-03-13T05:44:41.253Z,22.60
2019-03-13T05:47:10.773Z,22.50
2019-03-13T05:49:40.421Z,22.50
2019-03-13T05:52:09.931Z,22.40
2019-03-13T05:54:39.453Z,22.40
2019-03-13T05:57:08.970Z,22.40
2019-03-13T05:59:38.627Z,22.30
2019-03-13T06:02:08.175Z,22.30
2019-03-13T06:04:37.825Z,22.30
2019-03-13T06:07:08.661Z,22.30
2019-03-13T06:09:38.238Z,22.30
2019-03-13T06:12:07.776Z,22.30
2019-03-13T06:14:37.266Z,22.30
2019-03-13T06:17:06.763Z,22.30
2019-03-13T06:19:38.190Z,22.40
2019-03-13T06:22:07.687Z,22.40
2019-03-13T06:24:37.207Z,22.50
2019-03-13T06:27:06.710Z,22.50
2019-03-13T06:29:36.209Z,22.60
2019-03-13T06:32:05.836Z,22.70
2019-03-13T06:34:35.323Z,22.70
2019-03-13T06:37:04.817Z,22.80
2019-03-13T06:39:34.391Z,22.90
2019-03-13T06:42:03.881Z,23.00
2019-03-13T06:44:33.502Z,23.00
2019-03-13T06:47:03.049Z,23.10
2019-03-13T06:49:32.596Z,23.20
2019-03-13T06:52:02.090Z,23.20
2019-03-13T06:54:31.639Z,23.30
2019-03-13T06:57:01.149Z,23.30
2019-03-13T06:59:49.599Z,23.20
2019-03-13T07:02:27.593Z,23.20
2019-03-13T07:05:09.205Z,23.10
2019-03-13T07:08:03.481Z,23.10
2019-03-13T07:10:41.037Z,23.00
2019-03-13T07:13:28.440Z,22.90
2019-03-13T07:16:23.218Z,22.90
2019-03-13T07:19:14.572Z,22.80
2019-03-13T07:22:03.028Z,22.80
2019-03-13T07:24:51.456Z,22.70
2019-03-13T07:27:42.737Z,22.70
2019-03-13T07:30:25.627Z,22.70
2019-03-13T07:33:13.175Z,22.60
2019-03-13T07:36:05.807Z,22.60
2019-03-13T07:39:09.487Z,22.50
2019-03-13T07:41:56.783Z,22.50
2019-03-13T07:44:48.009Z,22.40
2019-03-13T07:47:35.055Z,22.40
2019-03-13T07:50:11.668Z,22.40
2019-03-13T07:53:09.314Z,22.40
2019-03-13T07:56:06.804Z,22.40
2019-03-13T07:58:54.716Z,22.30
2019-03-13T08:01:29.674Z,22.30
2019-03-13T08:04:21.134Z,22.30
2019-03-13T08:07:21.930Z,22.30
2019-03-13T08:10:10.352Z,22.30
2019-03-13T08:12:57.404Z,22.30
2019-03-13T08:15:43.005Z,22.30
2019-03-13T08:18:33.577Z,22.30
2019-03-13T08:21:31.202Z,22.30
2019-03-13T08:24:18.456Z,22.20
2019-03-13T08:26:56.629Z,22.20
2019-03-13T08:29:48.114Z,22.20
2019-03-13T08:32:39.315Z,22.20
2019-03-13T08:35:26.417Z,22.20
2019-03-13T08:38:00.907Z,22.20
2019-03-13T08:40:38.550Z,22.20
2019-03-13T08:43:24.093Z,22.20
2019-03-13T08:46:03.559Z,22.20
2019-03-13T08:49:01.315Z,22.20
2019-03-13T08:51:49.763Z,22.20
2019-03-13T08:54:44.259Z,22.20
2019-03-13T08:57:32.728Z,22.20
2019-03-13T09:00:19.762Z,22.20
2019-03-13T09:03:17.452Z,22.10
2019-03-13T09:06:01.125Z,22.10
2019-03-13T09:08:55.384Z,22.10
2019-03-13T09:11:59.266Z,22.10
2019-03-13T09:14:46.586Z,22.10
2019-03-13T09:17:22.496Z,22.10
2019-03-13T09:20:23.214Z,22.10
2019-03-13T09:23:05.236Z,22.10
2019-03-13T09:25:59.786Z,22.10
2019-03-13T09:28:50.932Z,22.10
2019-03-13T09:31:33.077Z,22.20
2019-03-13T09:34:20.259Z,22.20
2019-03-13T09:37:11.897Z,22.20
2019-03-13T09:40:15.385Z,22.20
2019-03-13T09:43:03.870Z,22.30
2019-03-13T09:45:55.030Z,22.30
2019-03-13T09:48:41.499Z,22.30
2019-03-13T09:51:21.295Z,22.40
2019-03-13T09:54:25.944Z,22.40
2019-03-13T09:57:13.191Z,22.50
2019-03-13T10:00:04.564Z,22.50
2019-03-13T10:02:44.902Z,22.50
2019-03-13T10:05:23.086Z,22.50
2019-03-13T10:08:09.031Z,22.60
2019-03-13T10:11:06.614Z,22.70
2019-03-13T10:13:57.971Z,22.70
2019-03-13T10:16:35.548Z,22.70
2019-03-13T10:19:22.844Z,22.70
2019-03-13T10:22:11.385Z,22.70
2019-03-13T10:25:02.671Z,22.80
2019-03-13T10:27:40.849Z,22.80
2019-03-13T10:30:17.790Z,22.80
2019-03-13T10:33:13.297Z,22.80
2019-03-13T10:36:08.721Z,22.70
2019-03-13T10:38:56.067Z,22.70
2019-03-13T10:41:33.844Z,22.60
2019-03-13T10:44:12.005Z,22.60
2019-03-13T10:46:51.084Z,22.50
2019-03-13T10:49:45.590Z,22.50
2019-03-13T10:52:36.977Z,22.50
2019-03-13T10:55:41.721Z,22.50
2019-03-13T10:58:25.971Z,22.50
2019-03-13T11:01:03.601Z,22.40
2019-03-13T11:03:39.319Z,22.40
2019-03-13T11:06:26.896Z,22.40
2019-03-13T11:09:15.325Z,22.40
2019-03-13T11:12:12.817Z,22.40
2019-03-13T11:15:04.472Z,22.40
2019-03-13T11:17:50.618Z,22.40
2019-03-13T11:20:39.060Z,22.30
2019-03-13T11:23:25.888Z,22.30
2019-03-13T11:26:13.379Z,22.30
2019-03-13T11:28:59.106Z,22.30
2019-03-13T11:31:37.045Z,22.30
2019-03-13T11:34:34.610Z,22.30
2019-03-13T11:37:23.829Z,22.30
2019-03-13T11:40:12.434Z,22.30
2019-03-13T11:43:15.006Z,22.20
2019-03-13T11:45:58.723Z,22.30
2019-03-13T11:48:50.394Z,22.30
2019-03-13T11:51:49.514Z,22.30
2019-03-13T11:54:41.118Z,22.30
2019-03-13T11:57:32.624Z,22.30
